NKS1649 KORD-KLAX
Flight info
| Callsign | NKS1649 |
|---|---|
| Flight time | 3h 45m |
| Altitude | 32000 |
| Route | PEKUE PIPPN ROTTN LEFAM Q90 DNERO ANJLL4 |
| Aircraft | A21N/M-SDE2E3FGHIJ1RWXY/LB1 |
Departure
| Time | 2026-04-23 02:11 |
|---|---|
| Airport | Chicago O'Hare International Airport (KORD) |
Arrival
| Time | 2026-04-23 05:56 |
|---|---|
| Airport | Los Angeles International Airport (KLAX) |
| Time | Latitude | Longitude | Altitude | Speed | Heading |
|---|---|---|---|---|---|
| 2026-04-23 01:26 | 41.97331 | -87.90389 | 676 ft | 0 kts | 88° |
| 2026-04-23 01:58 | 41.97331 | -87.90409 | 667 ft | 4 kts | 100° |
| 2026-04-23 01:58 | 41.97342 | -87.90435 | 664 ft | 4 kts | 153° |
| 2026-04-23 01:58 | 41.97358 | -87.90440 | 674 ft | 1 kts | 182° |
| 2026-04-23 01:58 | 41.97361 | -87.90440 | 674 ft | 0 kts | 182° |
| 2026-04-23 02:04 | 41.97353 | -87.90441 | 676 ft | 3 kts | 182° |
| 2026-04-23 02:04 | 41.97331 | -87.90442 | 676 ft | 4 kts | 182° |
| 2026-04-23 02:04 | 41.97300 | -87.90443 | 676 ft | 5 kts | 182° |
| 2026-04-23 02:05 | 41.97262 | -87.90445 | 676 ft | 6 kts | 182° |
| 2026-04-23 02:05 | 41.97221 | -87.90434 | 676 ft | 7 kts | 134° |
| 2026-04-23 02:05 | 41.97207 | -87.90372 | 676 ft | 8 kts | 94° |
| 2026-04-23 02:05 | 41.97206 | -87.90293 | 676 ft | 9 kts | 90° |
| 2026-04-23 02:06 | 41.97207 | -87.90203 | 676 ft | 10 kts | 89° |
| 2026-04-23 02:06 | 41.97164 | -87.90137 | 676 ft | 11 kts | 173° |
| 2026-04-23 02:06 | 41.97080 | -87.90131 | 676 ft | 13 kts | 183° |
| 2026-04-23 02:06 | 41.97039 | -87.90222 | 675 ft | 14 kts | 278° |
| 2026-04-23 02:07 | 41.97043 | -87.90353 | 675 ft | 15 kts | 270° |
| 2026-04-23 02:07 | 41.97042 | -87.90492 | 675 ft | 16 kts | 269° |
| 2026-04-23 02:07 | 41.97042 | -87.90642 | 675 ft | 17 kts | 270° |
| 2026-04-23 02:07 | 41.97041 | -87.90801 | 675 ft | 17 kts | 270° |
| 2026-04-23 02:08 | 41.97041 | -87.90968 | 676 ft | 18 kts | 270° |
| 2026-04-23 02:08 | 41.97040 | -87.91143 | 676 ft | 19 kts | 270° |
| 2026-04-23 02:08 | 41.97040 | -87.91326 | 677 ft | 20 kts | 270° |
| 2026-04-23 02:08 | 41.97040 | -87.91515 | 677 ft | 21 kts | 270° |
| 2026-04-23 02:09 | 41.97039 | -87.91646 | 677 ft | 21 kts | 270° |
| 2026-04-23 02:09 | 41.97039 | -87.91847 | 677 ft | 22 kts | 270° |
| 2026-04-23 02:09 | 41.97038 | -87.92022 | 677 ft | 15 kts | 263° |
| 2026-04-23 02:09 | 41.96974 | -87.92074 | 678 ft | 13 kts | 181° |
| 2026-04-23 02:10 | 41.96905 | -87.92016 | 678 ft | 14 kts | 84° |
| 2026-04-23 02:10 | 41.96908 | -87.91813 | 679 ft | 42 kts | 92° |
| 2026-04-23 02:10 | 41.96906 | -87.91074 | 677 ft | 115 kts | 89° |
| 2026-04-23 02:10 | 41.96909 | -87.89712 | 697 ft | 171 kts | 88° |
| 2026-04-23 02:11 | 41.96912 | -87.88091 | 1329 ft | 179 kts | 91° |
| 2026-04-23 02:11 | 41.96548 | -87.86467 | 2057 ft | 184 kts | 126° |
| 2026-04-23 02:11 | 41.95465 | -87.85552 | 2465 ft | 200 kts | 169° |
| 2026-04-23 02:11 | 41.94001 | -87.85651 | 2701 ft | 226 kts | 199° |
| 2026-04-23 02:12 | 41.92561 | -87.86783 | 2954 ft | 252 kts | 218° |
| 2026-04-23 02:12 | 41.91153 | -87.88234 | 3728 ft | 258 kts | 217° |
| 2026-04-23 02:12 | 41.89697 | -87.89649 | 4436 ft | 261 kts | 216° |
| 2026-04-23 02:12 | 41.88213 | -87.91074 | 4819 ft | 264 kts | 216° |
| 2026-04-23 02:13 | 41.86714 | -87.92508 | 4961 ft | 265 kts | 216° |
| 2026-04-23 02:13 | 41.85216 | -87.93946 | 5016 ft | 264 kts | 216° |
| 2026-04-23 02:13 | 41.83903 | -87.95666 | 5579 ft | 268 kts | 235° |
| 2026-04-23 02:13 | 41.83163 | -87.97980 | 6301 ft | 275 kts | 258° |
| 2026-04-23 02:14 | 41.82989 | -88.00520 | 6991 ft | 281 kts | 267° |
| 2026-04-23 02:14 | 41.82926 | -88.03172 | 7727 ft | 285 kts | 268° |
| 2026-04-23 02:14 | 41.82856 | -88.05834 | 8473 ft | 287 kts | 268° |
| 2026-04-23 02:14 | 41.82769 | -88.08529 | 9236 ft | 290 kts | 268° |
| 2026-04-23 02:15 | 41.82563 | -88.14024 | 10444 ft | 307 kts | 268° |
| 2026-04-23 02:15 | 41.82446 | -88.16967 | 10733 ft | 325 kts | 268° |
| 2026-04-23 02:15 | 41.82321 | -88.20003 | 11463 ft | 324 kts | 268° |
| 2026-04-23 02:16 | 41.82196 | -88.22979 | 12423 ft | 316 kts | 269° |
| 2026-04-23 02:16 | 41.82074 | -88.25893 | 13384 ft | 311 kts | 269° |
| 2026-04-23 02:16 | 41.81953 | -88.28789 | 14108 ft | 312 kts | 269° |
| 2026-04-23 02:16 | 41.81831 | -88.31674 | 14631 ft | 318 kts | 269° |
| 2026-04-23 02:17 | 41.81704 | -88.34704 | 14911 ft | 333 kts | 269° |
| 2026-04-23 02:17 | 41.81569 | -88.37877 | 15173 ft | 348 kts | 269° |
| 2026-04-23 02:17 | 41.81429 | -88.41155 | 15680 ft | 355 kts | 269° |
| 2026-04-23 02:17 | 41.81284 | -88.44463 | 16304 ft | 357 kts | 269° |
| 2026-04-23 02:18 | 41.81135 | -88.47805 | 16955 ft | 360 kts | 269° |
| 2026-04-23 02:18 | 41.80988 | -88.51169 | 17600 ft | 362 kts | 269° |
| 2026-04-23 02:18 | 41.80839 | -88.54550 | 18236 ft | 365 kts | 269° |
| 2026-04-23 02:18 | 41.80684 | -88.57993 | 18600 ft | 374 kts | 269° |
| 2026-04-23 02:19 | 41.80525 | -88.61535 | 18821 ft | 387 kts | 269° |
| 2026-04-23 02:19 | 41.80359 | -88.65181 | 19017 ft | 399 kts | 268° |
| 2026-04-23 02:19 | 41.80185 | -88.68960 | 19197 ft | 412 kts | 268° |
| 2026-04-23 02:19 | 41.80006 | -88.72850 | 19358 ft | 424 kts | 268° |
| 2026-04-23 02:20 | 41.79824 | -88.76788 | 19514 ft | 435 kts | 268° |
| 2026-04-23 02:20 | 41.79595 | -88.80885 | 19662 ft | 446 kts | 265° |
| 2026-04-23 02:20 | 41.79097 | -88.85011 | 19967 ft | 452 kts | 262° |
| 2026-04-23 02:20 | 41.78546 | -88.89170 | 20332 ft | 454 kts | 262° |
| 2026-04-23 02:21 | 41.77993 | -88.93351 | 20740 ft | 457 kts | 262° |
| 2026-04-23 02:21 | 41.77443 | -88.97560 | 21198 ft | 459 kts | 262° |
| 2026-04-23 02:21 | 41.76895 | -89.01796 | 21689 ft | 462 kts | 262° |
| 2026-04-23 02:21 | 41.76341 | -89.06047 | 22147 ft | 465 kts | 261° |
| 2026-04-23 02:22 | 41.75775 | -89.10326 | 22577 ft | 468 kts | 261° |
| 2026-04-23 02:22 | 41.75211 | -89.14632 | 22988 ft | 470 kts | 261° |
| 2026-04-23 02:22 | 41.74635 | -89.18961 | 23387 ft | 473 kts | 261° |
| 2026-04-23 02:22 | 41.74057 | -89.23303 | 23797 ft | 473 kts | 261° |
| 2026-04-23 02:23 | 41.73477 | -89.27632 | 24274 ft | 471 kts | 261° |
| 2026-04-23 02:23 | 41.72901 | -89.31932 | 24751 ft | 468 kts | 261° |
| 2026-04-23 02:23 | 41.72324 | -89.36216 | 25235 ft | 465 kts | 261° |
| 2026-04-23 02:23 | 41.71749 | -89.40464 | 25741 ft | 463 kts | 261° |
| 2026-04-23 02:24 | 41.71184 | -89.44636 | 26235 ft | 460 kts | 261° |
| 2026-04-23 02:24 | 41.70619 | -89.48831 | 26730 ft | 457 kts | 262° |
| 2026-04-23 02:24 | 41.70051 | -89.53013 | 27208 ft | 455 kts | 262° |
| 2026-04-23 02:24 | 41.69483 | -89.57167 | 27704 ft | 453 kts | 262° |
| 2026-04-23 02:25 | 41.68912 | -89.61308 | 28204 ft | 450 kts | 262° |
| 2026-04-23 02:25 | 41.68340 | -89.65406 | 28682 ft | 447 kts | 262° |
| 2026-04-23 02:25 | 41.67771 | -89.69478 | 29135 ft | 445 kts | 262° |
| 2026-04-23 02:25 | 41.67193 | -89.73535 | 29577 ft | 443 kts | 261° |
| 2026-04-23 02:26 | 41.66555 | -89.77557 | 30005 ft | 442 kts | 260° |
| 2026-04-23 02:26 | 41.65910 | -89.81574 | 30368 ft | 440 kts | 260° |
| 2026-04-23 02:26 | 41.65266 | -89.85560 | 30705 ft | 438 kts | 260° |
| 2026-04-23 02:26 | 41.64621 | -89.89540 | 31031 ft | 437 kts | 260° |
| 2026-04-23 02:27 | 41.63980 | -89.93501 | 31337 ft | 435 kts | 260° |
| 2026-04-23 02:27 | 41.63342 | -89.97449 | 31636 ft | 434 kts | 261° |
| 2026-04-23 02:27 | 41.62705 | -90.01389 | 31909 ft | 433 kts | 261° |
| 2026-04-23 02:28 | 41.61416 | -90.09335 | 31982 ft | 443 kts | 260° |
| 2026-04-23 02:28 | 41.60085 | -90.17458 | 31958 ft | 449 kts | 260° |
| 2026-04-23 02:29 | 41.58740 | -90.25618 | 31948 ft | 449 kts | 260° |
| 2026-04-23 02:29 | 41.57390 | -90.33765 | 31953 ft | 449 kts | 260° |
| 2026-04-23 02:30 | 41.56030 | -90.41902 | 31959 ft | 449 kts | 260° |
| 2026-04-23 02:30 | 41.54671 | -90.50029 | 31959 ft | 449 kts | 259° |
| 2026-04-23 02:31 | 41.53309 | -90.58108 | 31960 ft | 448 kts | 259° |
| 2026-04-23 02:31 | 41.51946 | -90.66219 | 31958 ft | 448 kts | 259° |
| 2026-04-23 02:32 | 41.50575 | -90.74329 | 31952 ft | 448 kts | 259° |
| 2026-04-23 02:32 | 41.49193 | -90.82426 | 31946 ft | 448 kts | 259° |
| 2026-04-23 02:33 | 41.47807 | -90.90527 | 31953 ft | 447 kts | 259° |
| 2026-04-23 02:33 | 41.46418 | -90.98605 | 31966 ft | 447 kts | 259° |
| 2026-04-23 02:34 | 41.45025 | -91.06679 | 31975 ft | 447 kts | 259° |
| 2026-04-23 02:34 | 41.43626 | -91.14739 | 31980 ft | 446 kts | 259° |
| 2026-04-23 02:35 | 41.42221 | -91.22800 | 31981 ft | 446 kts | 258° |
| 2026-04-23 02:35 | 41.40816 | -91.30844 | 31974 ft | 446 kts | 258° |
| 2026-04-23 02:36 | 41.39407 | -91.38892 | 31963 ft | 446 kts | 258° |
| 2026-04-23 02:36 | 41.37984 | -91.46936 | 31952 ft | 446 kts | 258° |
| 2026-04-23 02:37 | 41.36576 | -91.54923 | 31955 ft | 446 kts | 258° |
| 2026-04-23 02:37 | 41.35145 | -91.62953 | 31959 ft | 446 kts | 258° |
| 2026-04-23 02:38 | 41.33710 | -91.70977 | 31958 ft | 445 kts | 258° |
| 2026-04-23 02:38 | 41.32271 | -91.78981 | 31958 ft | 445 kts | 258° |
| 2026-04-23 02:39 | 41.30822 | -91.86995 | 31954 ft | 445 kts | 257° |
| 2026-04-23 02:39 | 41.29373 | -91.94993 | 31946 ft | 445 kts | 257° |
| 2026-04-23 02:40 | 41.27921 | -92.02980 | 31946 ft | 444 kts | 257° |
| 2026-04-23 02:40 | 41.26463 | -92.10967 | 31944 ft | 444 kts | 257° |
| 2026-04-23 02:41 | 41.25000 | -92.18946 | 31939 ft | 444 kts | 257° |
| 2026-04-23 02:41 | 41.23531 | -92.26908 | 31952 ft | 444 kts | 257° |
| 2026-04-23 02:42 | 41.22071 | -92.34817 | 31956 ft | 444 kts | 257° |
| 2026-04-23 02:42 | 41.20586 | -92.42769 | 31959 ft | 443 kts | 256° |
| 2026-04-23 02:43 | 41.19086 | -92.50708 | 31961 ft | 443 kts | 256° |
| 2026-04-23 02:43 | 41.17601 | -92.58649 | 31963 ft | 443 kts | 257° |
| 2026-04-23 02:44 | 41.16116 | -92.66577 | 31952 ft | 443 kts | 256° |
| 2026-04-23 02:44 | 41.14620 | -92.74515 | 31943 ft | 443 kts | 256° |
| 2026-04-23 02:45 | 41.13122 | -92.82448 | 31929 ft | 443 kts | 256° |
| 2026-04-23 02:45 | 41.11628 | -92.90328 | 31921 ft | 443 kts | 256° |
| 2026-04-23 02:46 | 41.10121 | -92.98251 | 31924 ft | 443 kts | 256° |
| 2026-04-23 02:46 | 41.08601 | -93.06163 | 31920 ft | 443 kts | 256° |
| 2026-04-23 02:47 | 41.07078 | -93.14084 | 31926 ft | 443 kts | 256° |
| 2026-04-23 02:47 | 41.05548 | -93.22003 | 31938 ft | 443 kts | 255° |
| 2026-04-23 02:48 | 41.04012 | -93.29907 | 31940 ft | 443 kts | 255° |
| 2026-04-23 02:48 | 41.02468 | -93.37804 | 31943 ft | 443 kts | 255° |
| 2026-04-23 02:49 | 41.00923 | -93.45697 | 31944 ft | 443 kts | 255° |
| 2026-04-23 02:49 | 40.99292 | -93.53513 | 31934 ft | 443 kts | 250° |
| 2026-04-23 02:50 | 40.97133 | -93.61168 | 31924 ft | 443 kts | 249° |
| 2026-04-23 02:50 | 40.94958 | -93.68801 | 31909 ft | 443 kts | 249° |
| 2026-04-23 02:51 | 40.92779 | -93.76425 | 31901 ft | 443 kts | 249° |
| 2026-04-23 02:51 | 40.90598 | -93.83988 | 31908 ft | 443 kts | 249° |
| 2026-04-23 02:52 | 40.88401 | -93.91593 | 31911 ft | 443 kts | 249° |
| 2026-04-23 02:52 | 40.86206 | -93.99203 | 31911 ft | 443 kts | 249° |
| 2026-04-23 02:53 | 40.84009 | -94.06806 | 31914 ft | 443 kts | 249° |
| 2026-04-23 02:53 | 40.81808 | -94.14406 | 31909 ft | 443 kts | 248° |
| 2026-04-23 02:54 | 40.79597 | -94.22005 | 31894 ft | 443 kts | 248° |
| 2026-04-23 02:54 | 40.77377 | -94.29605 | 31897 ft | 443 kts | 248° |
| 2026-04-23 02:55 | 40.75177 | -94.37158 | 31902 ft | 444 kts | 248° |
| 2026-04-23 02:55 | 40.72971 | -94.44759 | 31892 ft | 444 kts | 248° |
| 2026-04-23 02:56 | 40.70742 | -94.52358 | 31882 ft | 444 kts | 248° |
| 2026-04-23 02:56 | 40.68865 | -94.58659 | 31885 ft | 444 kts | 248° |
| 2026-04-23 02:57 | 40.66607 | -94.66249 | 31884 ft | 444 kts | 248° |
| 2026-04-23 02:57 | 40.63994 | -94.75067 | 31892 ft | 445 kts | 248° |
| 2026-04-23 02:58 | 40.62102 | -94.81421 | 31896 ft | 445 kts | 248° |
| 2026-04-23 02:58 | 40.59843 | -94.89000 | 31901 ft | 445 kts | 248° |
| 2026-04-23 02:59 | 40.57590 | -94.96534 | 31899 ft | 445 kts | 248° |
| 2026-04-23 02:59 | 40.55333 | -95.04121 | 31897 ft | 445 kts | 248° |
| 2026-04-23 03:00 | 40.53072 | -95.11707 | 31890 ft | 445 kts | 248° |
| 2026-04-23 03:00 | 40.50784 | -95.19284 | 31883 ft | 446 kts | 247° |
| 2026-04-23 03:01 | 40.48493 | -95.26844 | 31861 ft | 446 kts | 247° |
| 2026-04-23 03:01 | 40.46200 | -95.34423 | 31858 ft | 446 kts | 248° |
| 2026-04-23 03:02 | 40.43915 | -95.41948 | 31858 ft | 446 kts | 247° |
| 2026-04-23 03:02 | 40.41589 | -95.49499 | 31853 ft | 446 kts | 247° |
| 2026-04-23 03:03 | 40.39269 | -95.57067 | 31850 ft | 446 kts | 247° |
| 2026-04-23 03:03 | 40.36950 | -95.64635 | 31852 ft | 446 kts | 247° |
| 2026-04-23 03:04 | 40.34629 | -95.72191 | 31854 ft | 447 kts | 247° |
| 2026-04-23 03:04 | 40.32311 | -95.79695 | 31847 ft | 447 kts | 247° |
| 2026-04-23 03:05 | 40.29961 | -95.87242 | 31837 ft | 447 kts | 247° |
| 2026-04-23 03:05 | 40.27614 | -95.94799 | 31831 ft | 447 kts | 247° |
| 2026-04-23 03:06 | 40.25270 | -96.02361 | 31830 ft | 448 kts | 247° |
| 2026-04-23 03:06 | 40.22918 | -96.09909 | 31825 ft | 448 kts | 247° |
| 2026-04-23 03:07 | 40.20566 | -96.17410 | 31821 ft | 448 kts | 247° |
| 2026-04-23 03:07 | 40.18199 | -96.24952 | 31819 ft | 448 kts | 247° |
| 2026-04-23 03:08 | 40.16074 | -96.32616 | 31820 ft | 449 kts | 253° |
| 2026-04-23 03:08 | 40.14406 | -96.40504 | 31819 ft | 449 kts | 254° |
| 2026-04-23 03:09 | 40.12734 | -96.48372 | 31818 ft | 449 kts | 253° |
| 2026-04-23 03:09 | 40.11053 | -96.56231 | 31816 ft | 449 kts | 253° |
| 2026-04-23 03:10 | 40.09366 | -96.64081 | 31814 ft | 449 kts | 253° |
| 2026-04-23 03:10 | 40.07700 | -96.71876 | 31813 ft | 448 kts | 253° |
| 2026-04-23 03:11 | 40.06010 | -96.79717 | 31820 ft | 448 kts | 253° |
| 2026-04-23 03:11 | 40.04313 | -96.87549 | 31808 ft | 448 kts | 253° |
| 2026-04-23 03:12 | 40.02614 | -96.95371 | 31802 ft | 448 kts | 253° |
| 2026-04-23 03:12 | 40.00908 | -97.03180 | 31787 ft | 448 kts | 253° |
| 2026-04-23 03:13 | 39.99193 | -97.10990 | 31782 ft | 447 kts | 253° |
| 2026-04-23 03:13 | 39.97478 | -97.18794 | 31780 ft | 447 kts | 253° |
| 2026-04-23 03:14 | 39.95769 | -97.26533 | 31784 ft | 447 kts | 253° |
| 2026-04-23 03:14 | 39.94039 | -97.34313 | 31778 ft | 446 kts | 253° |
| 2026-04-23 03:15 | 39.92309 | -97.42079 | 31780 ft | 446 kts | 253° |
| 2026-04-23 03:15 | 39.90576 | -97.49841 | 31783 ft | 446 kts | 253° |
| 2026-04-23 03:16 | 39.88855 | -97.57545 | 31782 ft | 446 kts | 253° |
| 2026-04-23 03:16 | 39.86241 | -97.69150 | 31772 ft | 445 kts | 253° |
| 2026-04-23 03:17 | 39.84479 | -97.76878 | 31772 ft | 445 kts | 253° |
| 2026-04-23 03:17 | 39.82717 | -97.84590 | 31768 ft | 445 kts | 253° |
| 2026-04-23 03:18 | 39.80950 | -97.92302 | 31762 ft | 444 kts | 253° |
| 2026-04-23 03:18 | 39.79177 | -98.00006 | 31752 ft | 444 kts | 253° |
| 2026-04-23 03:19 | 39.77402 | -98.07700 | 31743 ft | 444 kts | 253° |
| 2026-04-23 03:19 | 39.75621 | -98.15388 | 31741 ft | 444 kts | 253° |
| 2026-04-23 03:20 | 39.73844 | -98.23027 | 31736 ft | 444 kts | 253° |
| 2026-04-23 03:20 | 39.72053 | -98.30716 | 31734 ft | 445 kts | 253° |
| 2026-04-23 03:21 | 39.70257 | -98.38402 | 31728 ft | 445 kts | 253° |
| 2026-04-23 03:21 | 39.68455 | -98.46078 | 31721 ft | 444 kts | 253° |
| 2026-04-23 03:22 | 39.66648 | -98.53751 | 31712 ft | 444 kts | 253° |
| 2026-04-23 03:22 | 39.64832 | -98.61426 | 31713 ft | 444 kts | 253° |
| 2026-04-23 03:23 | 39.63016 | -98.69086 | 31710 ft | 444 kts | 253° |
| 2026-04-23 03:23 | 39.61197 | -98.76748 | 31707 ft | 444 kts | 253° |
| 2026-04-23 03:24 | 39.59373 | -98.84393 | 31689 ft | 444 kts | 253° |
| 2026-04-23 03:24 | 39.57556 | -98.91985 | 31700 ft | 444 kts | 253° |
| 2026-04-23 03:25 | 39.55719 | -98.99620 | 31692 ft | 444 kts | 253° |
| 2026-04-23 03:25 | 39.53877 | -99.07259 | 31696 ft | 444 kts | 253° |
| 2026-04-23 03:26 | 39.52033 | -99.14898 | 31696 ft | 444 kts | 253° |
| 2026-04-23 03:26 | 39.50184 | -99.22532 | 31697 ft | 444 kts | 253° |
| 2026-04-23 03:27 | 39.48326 | -99.30164 | 31694 ft | 444 kts | 253° |
| 2026-04-23 03:27 | 39.46462 | -99.37789 | 31689 ft | 444 kts | 253° |
| 2026-04-23 03:28 | 39.44599 | -99.45394 | 31681 ft | 443 kts | 253° |
| 2026-04-23 03:28 | 39.42732 | -99.52997 | 31680 ft | 443 kts | 253° |
| 2026-04-23 03:29 | 39.40863 | -99.60579 | 31694 ft | 442 kts | 253° |
| 2026-04-23 03:29 | 39.39000 | -99.68100 | 31704 ft | 442 kts | 253° |
| 2026-04-23 03:30 | 39.37118 | -99.75659 | 31710 ft | 442 kts | 252° |
| 2026-04-23 03:30 | 39.35239 | -99.83219 | 31716 ft | 441 kts | 253° |
| 2026-04-23 03:31 | 39.33364 | -99.90761 | 31713 ft | 441 kts | 252° |
| 2026-04-23 03:31 | 39.31477 | -99.98291 | 31702 ft | 441 kts | 252° |
| 2026-04-23 03:32 | 39.29587 | -100.05819 | 31679 ft | 440 kts | 252° |
| 2026-04-23 03:32 | 39.27692 | -100.13332 | 31656 ft | 440 kts | 252° |
| 2026-04-23 03:33 | 39.25784 | -100.20857 | 31638 ft | 440 kts | 252° |
| 2026-04-23 03:33 | 39.23958 | -100.28396 | 31617 ft | 441 kts | 255° |
| 2026-04-23 03:34 | 39.22456 | -100.36006 | 31605 ft | 441 kts | 256° |
| 2026-04-23 03:34 | 39.20943 | -100.43689 | 31607 ft | 441 kts | 256° |
| 2026-04-23 03:35 | 39.19427 | -100.51338 | 31624 ft | 441 kts | 255° |
| 2026-04-23 03:35 | 39.17892 | -100.58988 | 31647 ft | 441 kts | 255° |
| 2026-04-23 03:36 | 39.16360 | -100.66634 | 31657 ft | 440 kts | 255° |
| 2026-04-23 03:36 | 39.14832 | -100.74262 | 31674 ft | 440 kts | 255° |
| 2026-04-23 03:37 | 39.13307 | -100.81899 | 31667 ft | 440 kts | 255° |
| 2026-04-23 03:37 | 39.11776 | -100.89463 | 31670 ft | 439 kts | 255° |
| 2026-04-23 03:38 | 39.10232 | -100.97067 | 31655 ft | 439 kts | 255° |
| 2026-04-23 03:38 | 39.08690 | -101.04652 | 31627 ft | 438 kts | 255° |
| 2026-04-23 03:39 | 39.07137 | -101.12237 | 31594 ft | 437 kts | 255° |
| 2026-04-23 03:39 | 39.05582 | -101.19798 | 31561 ft | 437 kts | 255° |
| 2026-04-23 03:40 | 39.04027 | -101.27355 | 31525 ft | 436 kts | 255° |
| 2026-04-23 03:40 | 39.02473 | -101.34909 | 31526 ft | 436 kts | 255° |
| 2026-04-23 03:41 | 39.00919 | -101.42431 | 31522 ft | 435 kts | 255° |
| 2026-04-23 03:41 | 38.99365 | -101.49884 | 31523 ft | 434 kts | 255° |
| 2026-04-23 03:42 | 38.97805 | -101.57376 | 31522 ft | 434 kts | 254° |
| 2026-04-23 03:42 | 38.96232 | -101.64843 | 31524 ft | 432 kts | 254° |
| 2026-04-23 03:43 | 38.94660 | -101.72305 | 31521 ft | 432 kts | 254° |
| 2026-04-23 03:43 | 38.93089 | -101.79749 | 31519 ft | 431 kts | 254° |
| 2026-04-23 03:44 | 38.91527 | -101.87174 | 31517 ft | 431 kts | 254° |
| 2026-04-23 03:44 | 38.89949 | -101.94599 | 31514 ft | 430 kts | 254° |
| 2026-04-23 03:45 | 38.88376 | -102.01994 | 31525 ft | 430 kts | 254° |
| 2026-04-23 03:45 | 38.87061 | -102.08143 | 31514 ft | 429 kts | 254° |
| 2026-04-23 03:46 | 38.85487 | -102.15520 | 31515 ft | 429 kts | 254° |
| 2026-04-23 03:46 | 38.83899 | -102.22883 | 31522 ft | 428 kts | 254° |
| 2026-04-23 03:47 | 38.82314 | -102.30246 | 31523 ft | 428 kts | 253° |
| 2026-04-23 03:47 | 38.80717 | -102.37594 | 31525 ft | 428 kts | 253° |
| 2026-04-23 03:48 | 38.79121 | -102.44936 | 31520 ft | 427 kts | 253° |
| 2026-04-23 03:48 | 38.77517 | -102.52259 | 31513 ft | 427 kts | 253° |
| 2026-04-23 03:49 | 38.75919 | -102.59587 | 31511 ft | 427 kts | 253° |
| 2026-04-23 03:49 | 38.74325 | -102.66899 | 31521 ft | 426 kts | 253° |
| 2026-04-23 03:50 | 38.72713 | -102.74212 | 31516 ft | 426 kts | 253° |
| 2026-04-23 03:50 | 38.71093 | -102.81513 | 31512 ft | 426 kts | 253° |
| 2026-04-23 03:51 | 38.69480 | -102.88813 | 31515 ft | 426 kts | 253° |
| 2026-04-23 03:51 | 38.67857 | -102.96112 | 31522 ft | 426 kts | 253° |
| 2026-04-23 03:52 | 38.66229 | -103.03401 | 31512 ft | 426 kts | 253° |
| 2026-04-23 03:52 | 38.64602 | -103.10686 | 31518 ft | 426 kts | 253° |
| 2026-04-23 03:53 | 38.62966 | -103.17970 | 31519 ft | 426 kts | 253° |
| 2026-04-23 03:53 | 38.61320 | -103.25248 | 31522 ft | 426 kts | 253° |
| 2026-04-23 03:54 | 38.59691 | -103.32473 | 31508 ft | 426 kts | 253° |
| 2026-04-23 03:54 | 38.58040 | -103.39742 | 31522 ft | 426 kts | 253° |
| 2026-04-23 03:55 | 38.56387 | -103.47015 | 31519 ft | 426 kts | 252° |
| 2026-04-23 03:55 | 38.54720 | -103.54287 | 31506 ft | 426 kts | 252° |
| 2026-04-23 03:56 | 38.53056 | -103.61561 | 31500 ft | 426 kts | 252° |
| 2026-04-23 03:56 | 38.51386 | -103.68823 | 31518 ft | 426 kts | 252° |
| 2026-04-23 03:57 | 38.49706 | -103.76086 | 31523 ft | 426 kts | 252° |
| 2026-04-23 03:57 | 38.48022 | -103.83353 | 31518 ft | 427 kts | 252° |
| 2026-04-23 03:58 | 38.46337 | -103.90619 | 31532 ft | 427 kts | 252° |
| 2026-04-23 03:58 | 38.44648 | -103.97876 | 31525 ft | 427 kts | 252° |
| 2026-04-23 03:59 | 38.42961 | -104.05094 | 31533 ft | 427 kts | 252° |
| 2026-04-23 03:59 | 38.41262 | -104.12352 | 31570 ft | 427 kts | 252° |
| 2026-04-23 04:00 | 38.39562 | -104.19608 | 31613 ft | 427 kts | 252° |
| 2026-04-23 04:00 | 38.37852 | -104.26861 | 31657 ft | 427 kts | 251° |
| 2026-04-23 04:01 | 38.36141 | -104.34087 | 31702 ft | 426 kts | 251° |
| 2026-04-23 04:01 | 38.34432 | -104.41313 | 31741 ft | 426 kts | 251° |
| 2026-04-23 04:02 | 38.32712 | -104.48531 | 31740 ft | 426 kts | 251° |
| 2026-04-23 04:02 | 38.31005 | -104.55749 | 31740 ft | 425 kts | 251° |
| 2026-04-23 04:03 | 38.29301 | -104.62970 | 31727 ft | 426 kts | 251° |
| 2026-04-23 04:03 | 38.27569 | -104.70176 | 31694 ft | 426 kts | 251° |
| 2026-04-23 04:04 | 38.25837 | -104.77401 | 31661 ft | 428 kts | 251° |
| 2026-04-23 04:04 | 38.24084 | -104.84651 | 31634 ft | 429 kts | 251° |
| 2026-04-23 04:05 | 38.22321 | -104.91919 | 31611 ft | 431 kts | 251° |
| 2026-04-23 04:05 | 38.20558 | -104.99203 | 31611 ft | 431 kts | 251° |
| 2026-04-23 04:06 | 38.18787 | -105.06493 | 31620 ft | 432 kts | 251° |
| 2026-04-23 04:06 | 38.17005 | -105.13777 | 31647 ft | 431 kts | 251° |
| 2026-04-23 04:07 | 38.15215 | -105.21063 | 31659 ft | 432 kts | 251° |
| 2026-04-23 04:07 | 38.13437 | -105.28284 | 31685 ft | 431 kts | 251° |
| 2026-04-23 04:08 | 38.11646 | -105.35554 | 31684 ft | 431 kts | 251° |
| 2026-04-23 04:08 | 38.09853 | -105.42839 | 31714 ft | 428 kts | 251° |
| 2026-04-23 04:09 | 38.08084 | -105.49965 | 31706 ft | 424 kts | 251° |
| 2026-04-23 04:09 | 38.06321 | -105.57079 | 31717 ft | 420 kts | 251° |
| 2026-04-23 04:10 | 38.04554 | -105.64137 | 31738 ft | 418 kts | 251° |
| 2026-04-23 04:10 | 38.02795 | -105.71157 | 31740 ft | 415 kts | 251° |
| 2026-04-23 04:11 | 38.01039 | -105.78115 | 31730 ft | 414 kts | 249° |
| 2026-04-23 04:11 | 37.99070 | -105.84995 | 31736 ft | 415 kts | 249° |
| 2026-04-23 04:12 | 37.97074 | -105.91871 | 31738 ft | 417 kts | 249° |
| 2026-04-23 04:12 | 37.95069 | -105.98778 | 31737 ft | 417 kts | 249° |
| 2026-04-23 04:13 | 37.93065 | -106.05649 | 31782 ft | 419 kts | 249° |
| 2026-04-23 04:13 | 37.91043 | -106.12565 | 31839 ft | 419 kts | 249° |
| 2026-04-23 04:14 | 37.89018 | -106.19499 | 31894 ft | 420 kts | 249° |
| 2026-04-23 04:14 | 37.86991 | -106.26436 | 31933 ft | 420 kts | 249° |
| 2026-04-23 04:15 | 37.84948 | -106.33377 | 31955 ft | 421 kts | 249° |
| 2026-04-23 04:16 | 37.81875 | -106.43792 | 31963 ft | 422 kts | 249° |
| 2026-04-23 04:16 | 37.79819 | -106.50755 | 31962 ft | 423 kts | 249° |
| 2026-04-23 04:17 | 37.77751 | -106.57707 | 31946 ft | 422 kts | 249° |
| 2026-04-23 04:17 | 37.75696 | -106.64625 | 31927 ft | 419 kts | 249° |
| 2026-04-23 04:18 | 37.73647 | -106.71510 | 31904 ft | 417 kts | 249° |
| 2026-04-23 04:18 | 37.71586 | -106.78345 | 31876 ft | 414 kts | 249° |
| 2026-04-23 04:19 | 37.69549 | -106.85143 | 31871 ft | 413 kts | 249° |
| 2026-04-23 04:19 | 37.67520 | -106.91892 | 31881 ft | 410 kts | 249° |
| 2026-04-23 04:20 | 37.65510 | -106.98575 | 31881 ft | 411 kts | 249° |
| 2026-04-23 04:20 | 37.63471 | -107.05366 | 31888 ft | 410 kts | 249° |
| 2026-04-23 04:21 | 37.61454 | -107.12052 | 31903 ft | 411 kts | 249° |
| 2026-04-23 04:21 | 37.59419 | -107.18783 | 31907 ft | 411 kts | 249° |
| 2026-04-23 04:22 | 37.57375 | -107.25506 | 31902 ft | 411 kts | 249° |
| 2026-04-23 04:22 | 37.55319 | -107.32231 | 31897 ft | 411 kts | 249° |
| 2026-04-23 04:23 | 37.53268 | -107.38951 | 31878 ft | 410 kts | 249° |
| 2026-04-23 04:23 | 37.51222 | -107.45638 | 31870 ft | 408 kts | 249° |
| 2026-04-23 04:24 | 37.49175 | -107.52317 | 31884 ft | 411 kts | 249° |
| 2026-04-23 04:24 | 37.47098 | -107.59060 | 31875 ft | 413 kts | 249° |
| 2026-04-23 04:25 | 37.45021 | -107.65793 | 31895 ft | 413 kts | 249° |
| 2026-04-23 04:25 | 37.42948 | -107.72520 | 31903 ft | 413 kts | 249° |
| 2026-04-23 04:26 | 37.40855 | -107.79256 | 31903 ft | 413 kts | 249° |
| 2026-04-23 04:26 | 37.38763 | -107.85995 | 31894 ft | 413 kts | 249° |
| 2026-04-23 04:27 | 37.36669 | -107.92730 | 31900 ft | 414 kts | 249° |
| 2026-04-23 04:27 | 37.34562 | -107.99481 | 31892 ft | 414 kts | 249° |
| 2026-04-23 04:28 | 37.31388 | -108.09585 | 31857 ft | 415 kts | 249° |
| 2026-04-23 04:28 | 37.29267 | -108.16324 | 31823 ft | 415 kts | 249° |
| 2026-04-23 04:29 | 37.27151 | -108.23025 | 31845 ft | 416 kts | 249° |
| 2026-04-23 04:29 | 37.25369 | -108.28672 | 31865 ft | 416 kts | 249° |
| 2026-04-23 04:30 | 37.22887 | -108.36527 | 31884 ft | 415 kts | 249° |
| 2026-04-23 04:30 | 37.20753 | -108.43257 | 31907 ft | 415 kts | 248° |
| 2026-04-23 04:31 | 37.18972 | -108.48872 | 31922 ft | 416 kts | 248° |
| 2026-04-23 04:31 | 37.16833 | -108.55616 | 31933 ft | 416 kts | 248° |
| 2026-04-23 04:32 | 37.14681 | -108.62360 | 31921 ft | 416 kts | 248° |
| 2026-04-23 04:32 | 37.12526 | -108.69101 | 31903 ft | 417 kts | 248° |
| 2026-04-23 04:33 | 37.10361 | -108.75850 | 31868 ft | 417 kts | 248° |
| 2026-04-23 04:33 | 37.08198 | -108.82602 | 31840 ft | 417 kts | 248° |
| 2026-04-23 04:34 | 37.06028 | -108.89347 | 31796 ft | 418 kts | 248° |
| 2026-04-23 04:34 | 37.03844 | -108.96099 | 31770 ft | 418 kts | 248° |
| 2026-04-23 04:35 | 37.01671 | -109.02807 | 31769 ft | 418 kts | 248° |
| 2026-04-23 04:35 | 36.99484 | -109.09556 | 31772 ft | 418 kts | 248° |
| 2026-04-23 04:36 | 36.97286 | -109.16298 | 31768 ft | 418 kts | 248° |
| 2026-04-23 04:36 | 36.95100 | -109.23035 | 31771 ft | 418 kts | 248° |
| 2026-04-23 04:37 | 36.92912 | -109.29770 | 31776 ft | 418 kts | 248° |
| 2026-04-23 04:37 | 36.90704 | -109.36485 | 31773 ft | 417 kts | 248° |
| 2026-04-23 04:38 | 36.88507 | -109.43199 | 31777 ft | 418 kts | 248° |
| 2026-04-23 04:38 | 36.86301 | -109.49905 | 31774 ft | 417 kts | 248° |
| 2026-04-23 04:39 | 36.84075 | -109.56605 | 31772 ft | 417 kts | 247° |
| 2026-04-23 04:39 | 36.81864 | -109.63295 | 31774 ft | 417 kts | 248° |
| 2026-04-23 04:40 | 36.79676 | -109.69955 | 31769 ft | 417 kts | 247° |
| 2026-04-23 04:40 | 36.77458 | -109.76647 | 31777 ft | 417 kts | 247° |
| 2026-04-23 04:41 | 36.75239 | -109.83337 | 31771 ft | 417 kts | 247° |
| 2026-04-23 04:41 | 36.73009 | -109.90015 | 31776 ft | 417 kts | 247° |
| 2026-04-23 04:42 | 36.70778 | -109.96687 | 31781 ft | 417 kts | 247° |
| 2026-04-23 04:42 | 36.68544 | -110.03359 | 31782 ft | 417 kts | 247° |
| 2026-04-23 04:43 | 36.66301 | -110.10033 | 31786 ft | 418 kts | 247° |
| 2026-04-23 04:43 | 36.64055 | -110.16708 | 31793 ft | 417 kts | 247° |
| 2026-04-23 04:44 | 36.61810 | -110.23371 | 31800 ft | 418 kts | 247° |
| 2026-04-23 04:44 | 36.59560 | -110.30045 | 31805 ft | 417 kts | 247° |
| 2026-04-23 04:45 | 36.57300 | -110.36701 | 31806 ft | 418 kts | 246° |
| 2026-04-23 04:45 | 36.55042 | -110.43357 | 31809 ft | 417 kts | 246° |
| 2026-04-23 04:46 | 36.52800 | -110.49951 | 31807 ft | 416 kts | 246° |
| 2026-04-23 04:46 | 36.50533 | -110.56560 | 31811 ft | 415 kts | 246° |
| 2026-04-23 04:47 | 36.48278 | -110.63148 | 31811 ft | 414 kts | 246° |
| 2026-04-23 04:47 | 36.46033 | -110.69734 | 31812 ft | 413 kts | 246° |
| 2026-04-23 04:48 | 36.43784 | -110.76301 | 31816 ft | 413 kts | 246° |
| 2026-04-23 04:48 | 36.41536 | -110.82843 | 31815 ft | 412 kts | 246° |
| 2026-04-23 04:49 | 36.39282 | -110.89389 | 31818 ft | 412 kts | 246° |
| 2026-04-23 04:49 | 36.37025 | -110.95922 | 31815 ft | 411 kts | 246° |
| 2026-04-23 04:50 | 36.34778 | -111.02404 | 31818 ft | 411 kts | 246° |
| 2026-04-23 04:50 | 36.32524 | -111.08912 | 31824 ft | 410 kts | 246° |
| 2026-04-23 04:51 | 36.30262 | -111.15413 | 31821 ft | 411 kts | 245° |
| 2026-04-23 04:51 | 36.27997 | -111.21913 | 31822 ft | 411 kts | 245° |
| 2026-04-23 04:52 | 36.25728 | -111.28409 | 31827 ft | 411 kts | 245° |
| 2026-04-23 04:52 | 36.23454 | -111.34905 | 31819 ft | 411 kts | 245° |
| 2026-04-23 04:53 | 36.21182 | -111.41399 | 31824 ft | 411 kts | 245° |
| 2026-04-23 04:53 | 36.18896 | -111.47879 | 31821 ft | 411 kts | 245° |
| 2026-04-23 04:54 | 36.16611 | -111.54371 | 31819 ft | 411 kts | 245° |
| 2026-04-23 04:54 | 36.14324 | -111.60865 | 31833 ft | 412 kts | 245° |
| 2026-04-23 04:55 | 36.12026 | -111.67363 | 31843 ft | 412 kts | 245° |
| 2026-04-23 04:55 | 36.09743 | -111.73802 | 31852 ft | 413 kts | 245° |
| 2026-04-23 04:56 | 36.07429 | -111.80309 | 31913 ft | 413 kts | 245° |
| 2026-04-23 04:56 | 36.05293 | -111.86909 | 31982 ft | 413 kts | 246° |
| 2026-04-23 04:57 | 36.03195 | -111.93495 | 32033 ft | 412 kts | 246° |
| 2026-04-23 04:57 | 36.01096 | -112.00064 | 32081 ft | 411 kts | 246° |
| 2026-04-23 04:58 | 35.98989 | -112.06623 | 32106 ft | 410 kts | 246° |
| 2026-04-23 04:58 | 35.96882 | -112.13174 | 32101 ft | 410 kts | 246° |
| 2026-04-23 04:59 | 35.94783 | -112.19709 | 32103 ft | 409 kts | 246° |
| 2026-04-23 04:59 | 35.92679 | -112.26238 | 32103 ft | 409 kts | 246° |
| 2026-04-23 05:00 | 35.90569 | -112.32755 | 32064 ft | 409 kts | 246° |
| 2026-04-23 05:00 | 35.88466 | -112.39223 | 32030 ft | 409 kts | 246° |
| 2026-04-23 05:01 | 35.86348 | -112.45752 | 31991 ft | 410 kts | 246° |
| 2026-04-23 05:01 | 35.84225 | -112.52276 | 31957 ft | 410 kts | 246° |
| 2026-04-23 05:02 | 35.82096 | -112.58796 | 31934 ft | 410 kts | 246° |
| 2026-04-23 05:02 | 35.79967 | -112.65319 | 31932 ft | 410 kts | 246° |
| 2026-04-23 05:03 | 35.77829 | -112.71829 | 31932 ft | 410 kts | 246° |
| 2026-04-23 05:03 | 35.75688 | -112.78347 | 31928 ft | 410 kts | 246° |
| 2026-04-23 05:04 | 35.73542 | -112.84862 | 31927 ft | 411 kts | 246° |
| 2026-04-23 05:04 | 35.71395 | -112.91376 | 31922 ft | 411 kts | 246° |
| 2026-04-23 05:05 | 35.69244 | -112.97883 | 31919 ft | 410 kts | 246° |
| 2026-04-23 05:05 | 35.67092 | -113.04378 | 31918 ft | 410 kts | 246° |
| 2026-04-23 05:06 | 35.64941 | -113.10863 | 31910 ft | 410 kts | 246° |
| 2026-04-23 05:06 | 35.62798 | -113.17305 | 31906 ft | 409 kts | 246° |
| 2026-04-23 05:07 | 35.60645 | -113.23767 | 31902 ft | 408 kts | 246° |
| 2026-04-23 05:07 | 35.58488 | -113.30209 | 31899 ft | 408 kts | 246° |
| 2026-04-23 05:08 | 35.56321 | -113.36659 | 31891 ft | 408 kts | 246° |
| 2026-04-23 05:08 | 35.54160 | -113.43108 | 31887 ft | 408 kts | 246° |
| 2026-04-23 05:09 | 35.51997 | -113.49547 | 31882 ft | 408 kts | 246° |
| 2026-04-23 05:09 | 35.49842 | -113.55936 | 31870 ft | 408 kts | 246° |
| 2026-04-23 05:10 | 35.47673 | -113.62367 | 31890 ft | 408 kts | 246° |
| 2026-04-23 05:10 | 35.45498 | -113.68785 | 31907 ft | 408 kts | 246° |
| 2026-04-23 05:11 | 35.43318 | -113.75208 | 31938 ft | 407 kts | 246° |
| 2026-04-23 05:11 | 35.41143 | -113.81623 | 31964 ft | 407 kts | 246° |
| 2026-04-23 05:12 | 35.38961 | -113.88023 | 31991 ft | 407 kts | 246° |
| 2026-04-23 05:12 | 35.36776 | -113.94420 | 32009 ft | 407 kts | 246° |
| 2026-04-23 05:13 | 35.34594 | -114.00801 | 32019 ft | 406 kts | 246° |
| 2026-04-23 05:14 | 35.31311 | -114.10369 | 31989 ft | 406 kts | 247° |
| 2026-04-23 05:14 | 35.29120 | -114.16745 | 31964 ft | 406 kts | 246° |
| 2026-04-23 05:15 | 35.26916 | -114.23107 | 31934 ft | 406 kts | 247° |
| 2026-04-23 05:15 | 35.24722 | -114.29479 | 31899 ft | 406 kts | 247° |
| 2026-04-23 05:16 | 35.22898 | -114.34767 | 31906 ft | 406 kts | 247° |
| 2026-04-23 05:16 | 35.20336 | -114.42157 | 31920 ft | 406 kts | 247° |
| 2026-04-23 05:17 | 35.18130 | -114.48503 | 31921 ft | 406 kts | 247° |
| 2026-04-23 05:17 | 35.15925 | -114.54840 | 31919 ft | 405 kts | 247° |
| 2026-04-23 05:18 | 35.14073 | -114.60155 | 31923 ft | 405 kts | 247° |
| 2026-04-23 05:18 | 35.11871 | -114.66447 | 31922 ft | 405 kts | 247° |
| 2026-04-23 05:19 | 35.09674 | -114.72787 | 31918 ft | 405 kts | 247° |
| 2026-04-23 05:19 | 35.07476 | -114.79108 | 31917 ft | 405 kts | 247° |
| 2026-04-23 05:20 | 35.05255 | -114.85452 | 31921 ft | 406 kts | 247° |
| 2026-04-23 05:20 | 35.02950 | -114.91744 | 31921 ft | 407 kts | 244° |
| 2026-04-23 05:21 | 35.00311 | -114.97848 | 31941 ft | 407 kts | 243° |
| 2026-04-23 05:21 | 34.97661 | -115.03936 | 31951 ft | 405 kts | 245° |
| 2026-04-23 05:22 | 34.95048 | -115.09997 | 31944 ft | 403 kts | 246° |
| 2026-04-23 05:22 | 34.92426 | -115.16040 | 31952 ft | 404 kts | 246° |
| 2026-04-23 05:23 | 34.89793 | -115.22096 | 31957 ft | 405 kts | 246° |
| 2026-04-23 05:23 | 34.87156 | -115.28156 | 31960 ft | 405 kts | 246° |
| 2026-04-23 05:24 | 34.84520 | -115.34188 | 31967 ft | 405 kts | 246° |
| 2026-04-23 05:24 | 34.81864 | -115.40243 | 31965 ft | 406 kts | 246° |
| 2026-04-23 05:25 | 34.79233 | -115.46319 | 31974 ft | 405 kts | 248° |
| 2026-04-23 05:25 | 34.76917 | -115.52557 | 31970 ft | 404 kts | 249° |
| 2026-04-23 05:26 | 34.74625 | -115.58802 | 31976 ft | 405 kts | 249° |
| 2026-04-23 05:26 | 34.72328 | -115.65047 | 31982 ft | 405 kts | 249° |
| 2026-04-23 05:27 | 34.70025 | -115.71290 | 31985 ft | 405 kts | 249° |
| 2026-04-23 05:27 | 34.67717 | -115.77535 | 31992 ft | 405 kts | 249° |
| 2026-04-23 05:28 | 34.65402 | -115.83762 | 31991 ft | 404 kts | 249° |
| 2026-04-23 05:28 | 34.63097 | -115.89980 | 31992 ft | 403 kts | 249° |
| 2026-04-23 05:29 | 34.60805 | -115.96192 | 31992 ft | 403 kts | 249° |
| 2026-04-23 05:29 | 34.58519 | -116.02393 | 32000 ft | 402 kts | 249° |
| 2026-04-23 05:30 | 34.56252 | -116.08537 | 31994 ft | 401 kts | 249° |
| 2026-04-23 05:30 | 34.53992 | -116.14609 | 32001 ft | 388 kts | 249° |
| 2026-04-23 05:31 | 34.51777 | -116.20570 | 31995 ft | 387 kts | 249° |
| 2026-04-23 05:31 | 34.49567 | -116.26528 | 32000 ft | 387 kts | 249° |
| 2026-04-23 05:32 | 34.47374 | -116.32417 | 31545 ft | 377 kts | 249° |
| 2026-04-23 05:32 | 34.46298 | -116.35301 | 31010 ft | 372 kts | 249° |
| 2026-04-23 05:32 | 34.45238 | -116.38143 | 30473 ft | 368 kts | 249° |
| 2026-04-23 05:32 | 34.44188 | -116.40962 | 29929 ft | 367 kts | 249° |
| 2026-04-23 05:33 | 34.43135 | -116.43787 | 29289 ft | 370 kts | 249° |
| 2026-04-23 05:33 | 34.42070 | -116.46638 | 28703 ft | 373 kts | 249° |
| 2026-04-23 05:33 | 34.40945 | -116.49485 | 28105 ft | 377 kts | 248° |
| 2026-04-23 05:33 | 34.39773 | -116.52351 | 27555 ft | 379 kts | 247° |
| 2026-04-23 05:34 | 34.38615 | -116.55156 | 27220 ft | 366 kts | 247° |
| 2026-04-23 05:34 | 34.37486 | -116.57882 | 26713 ft | 357 kts | 248° |
| 2026-04-23 05:34 | 34.36381 | -116.60554 | 26108 ft | 353 kts | 248° |
| 2026-04-23 05:34 | 34.35289 | -116.63199 | 25478 ft | 350 kts | 248° |
| 2026-04-23 05:35 | 34.34205 | -116.65830 | 24826 ft | 348 kts | 248° |
| 2026-04-23 05:35 | 34.33143 | -116.68417 | 24192 ft | 346 kts | 248° |
| 2026-04-23 05:35 | 34.32094 | -116.71024 | 23580 ft | 345 kts | 248° |
| 2026-04-23 05:35 | 34.31043 | -116.73648 | 23084 ft | 347 kts | 248° |
| 2026-04-23 05:36 | 34.29991 | -116.76272 | 22724 ft | 345 kts | 248° |
| 2026-04-23 05:36 | 34.28941 | -116.78876 | 22365 ft | 344 kts | 248° |
| 2026-04-23 05:36 | 34.27894 | -116.81473 | 22010 ft | 342 kts | 248° |
| 2026-04-23 05:36 | 34.26854 | -116.84052 | 21658 ft | 340 kts | 248° |
| 2026-04-23 05:37 | 34.25815 | -116.86622 | 21309 ft | 338 kts | 248° |
| 2026-04-23 05:37 | 34.24785 | -116.89164 | 20959 ft | 337 kts | 248° |
| 2026-04-23 05:37 | 34.23758 | -116.91700 | 20611 ft | 335 kts | 248° |
| 2026-04-23 05:37 | 34.22748 | -116.94195 | 20266 ft | 333 kts | 248° |
| 2026-04-23 05:38 | 34.21733 | -116.96704 | 19911 ft | 332 kts | 248° |
| 2026-04-23 05:38 | 34.20810 | -116.99241 | 19571 ft | 328 kts | 253° |
| 2026-04-23 05:38 | 34.20092 | -117.01845 | 19224 ft | 326 kts | 255° |
| 2026-04-23 05:38 | 34.19404 | -117.04458 | 18858 ft | 325 kts | 255° |
| 2026-04-23 05:39 | 34.18717 | -117.07038 | 18507 ft | 322 kts | 255° |
| 2026-04-23 05:39 | 34.18030 | -117.09599 | 17963 ft | 319 kts | 255° |
| 2026-04-23 05:39 | 34.17342 | -117.12146 | 17573 ft | 319 kts | 255° |
| 2026-04-23 05:39 | 34.16650 | -117.14692 | 17213 ft | 318 kts | 255° |
| 2026-04-23 05:40 | 34.15961 | -117.17220 | 16860 ft | 317 kts | 255° |
| 2026-04-23 05:40 | 34.15278 | -117.19714 | 16510 ft | 317 kts | 255° |
| 2026-04-23 05:40 | 34.14583 | -117.22237 | 16161 ft | 316 kts | 255° |
| 2026-04-23 05:40 | 34.13890 | -117.24751 | 15812 ft | 315 kts | 255° |
| 2026-04-23 05:41 | 34.13199 | -117.27254 | 15459 ft | 314 kts | 255° |
| 2026-04-23 05:41 | 34.12510 | -117.29756 | 15102 ft | 313 kts | 255° |
| 2026-04-23 05:41 | 34.11825 | -117.32248 | 14750 ft | 313 kts | 255° |
| 2026-04-23 05:41 | 34.11139 | -117.34732 | 14389 ft | 312 kts | 255° |
| 2026-04-23 05:42 | 34.10466 | -117.37202 | 14066 ft | 305 kts | 256° |
| 2026-04-23 05:42 | 34.09859 | -117.39603 | 13717 ft | 296 kts | 257° |
| 2026-04-23 05:42 | 34.09265 | -117.41981 | 13234 ft | 296 kts | 257° |
| 2026-04-23 05:42 | 34.08671 | -117.44357 | 12844 ft | 295 kts | 257° |
| 2026-04-23 05:43 | 34.08079 | -117.46726 | 12478 ft | 295 kts | 257° |
| 2026-04-23 05:43 | 34.07485 | -117.49096 | 12136 ft | 295 kts | 256° |
| 2026-04-23 05:43 | 34.06757 | -117.51416 | 11823 ft | 296 kts | 251° |
| 2026-04-23 05:43 | 34.05939 | -117.53694 | 11469 ft | 293 kts | 250° |
| 2026-04-23 05:44 | 34.05127 | -117.55930 | 10971 ft | 291 kts | 250° |
| 2026-04-23 05:44 | 34.04331 | -117.58132 | 10545 ft | 286 kts | 250° |
| 2026-04-23 05:44 | 34.03549 | -117.60288 | 10327 ft | 275 kts | 250° |
| 2026-04-23 05:44 | 34.02793 | -117.62376 | 10009 ft | 269 kts | 250° |
| 2026-04-23 05:45 | 34.02048 | -117.64435 | 9573 ft | 267 kts | 250° |
| 2026-04-23 05:45 | 34.01305 | -117.66494 | 9098 ft | 267 kts | 249° |
| 2026-04-23 05:45 | 34.00650 | -117.68572 | 8615 ft | 264 kts | 258° |
| 2026-04-23 05:45 | 34.00365 | -117.70749 | 8148 ft | 262 kts | 265° |
| 2026-04-23 05:46 | 34.00169 | -117.72936 | 7693 ft | 262 kts | 265° |
| 2026-04-23 05:46 | 33.99973 | -117.75117 | 7245 ft | 262 kts | 265° |
| 2026-04-23 05:46 | 33.99770 | -117.77297 | 6788 ft | 261 kts | 265° |
| 2026-04-23 05:46 | 33.99562 | -117.79467 | 6354 ft | 261 kts | 264° |
| 2026-04-23 05:47 | 33.99351 | -117.81643 | 5896 ft | 261 kts | 264° |
| 2026-04-23 05:47 | 33.99141 | -117.83811 | 5437 ft | 261 kts | 264° |
| 2026-04-23 05:47 | 33.98936 | -117.85982 | 5071 ft | 261 kts | 264° |
| 2026-04-23 05:47 | 33.98734 | -117.88152 | 4970 ft | 261 kts | 264° |
| 2026-04-23 05:48 | 33.98527 | -117.90325 | 4962 ft | 261 kts | 264° |
| 2026-04-23 05:48 | 33.98317 | -117.92497 | 4971 ft | 261 kts | 264° |
| 2026-04-23 05:48 | 33.98104 | -117.94667 | 4982 ft | 261 kts | 264° |
| 2026-04-23 05:48 | 33.97891 | -117.96840 | 4985 ft | 261 kts | 264° |
| 2026-04-23 05:49 | 33.97677 | -117.99013 | 4989 ft | 261 kts | 264° |
| 2026-04-23 05:49 | 33.97459 | -118.01190 | 4989 ft | 261 kts | 264° |
| 2026-04-23 05:49 | 33.97258 | -118.03166 | 4975 ft | 247 kts | 264° |
| 2026-04-23 05:49 | 33.97077 | -118.05008 | 4932 ft | 232 kts | 265° |
| 2026-04-23 05:50 | 33.96931 | -118.06780 | 4777 ft | 221 kts | 264° |
| 2026-04-23 05:50 | 33.96746 | -118.08658 | 4421 ft | 217 kts | 264° |
| 2026-04-23 05:50 | 33.96566 | -118.10440 | 4020 ft | 218 kts | 264° |
| 2026-04-23 05:50 | 33.96382 | -118.12248 | 3670 ft | 217 kts | 264° |
| 2026-04-23 05:51 | 33.96200 | -118.14049 | 3661 ft | 218 kts | 264° |
| 2026-04-23 05:51 | 33.96014 | -118.15870 | 3632 ft | 218 kts | 264° |
| 2026-04-23 05:51 | 33.95840 | -118.17582 | 3471 ft | 208 kts | 264° |
| 2026-04-23 05:51 | 33.95673 | -118.19221 | 3236 ft | 199 kts | 264° |
| 2026-04-23 05:52 | 33.95508 | -118.20850 | 2973 ft | 192 kts | 264° |
| 2026-04-23 05:52 | 33.95348 | -118.22420 | 2723 ft | 186 kts | 264° |
| 2026-04-23 05:52 | 33.95192 | -118.23957 | 2475 ft | 185 kts | 264° |
| 2026-04-23 05:52 | 33.95035 | -118.25495 | 2235 ft | 185 kts | 264° |
| 2026-04-23 05:53 | 33.94879 | -118.27031 | 1990 ft | 184 kts | 264° |
| 2026-04-23 05:53 | 33.94732 | -118.28465 | 1795 ft | 159 kts | 264° |
| 2026-04-23 05:53 | 33.94609 | -118.29673 | 1542 ft | 135 kts | 265° |
| 2026-04-23 05:53 | 33.94496 | -118.30780 | 1363 ft | 132 kts | 264° |
| 2026-04-23 05:54 | 33.94386 | -118.31867 | 1191 ft | 130 kts | 264° |
| 2026-04-23 05:54 | 33.94281 | -118.32941 | 1025 ft | 129 kts | 264° |
| 2026-04-23 05:54 | 33.94168 | -118.34002 | 855 ft | 127 kts | 263° |
| 2026-04-23 05:54 | 33.94050 | -118.35054 | 697 ft | 126 kts | 263° |
| 2026-04-23 05:55 | 33.93945 | -118.36095 | 557 ft | 126 kts | 263° |
| 2026-04-23 05:55 | 33.93840 | -118.37140 | 359 ft | 125 kts | 264° |
| 2026-04-23 05:55 | 33.93740 | -118.38151 | 176 ft | 119 kts | 263° |
| 2026-04-23 05:55 | 33.93652 | -118.39092 | 113 ft | 100 kts | 263° |
| 2026-04-23 05:56 | 33.93594 | -118.39683 | 116 ft | 49 kts | 264° |
| 2026-04-23 05:56 | 33.93566 | -118.40097 | 115 ft | 50 kts | 274° |
| 2026-04-23 05:56 | 33.93614 | -118.40338 | 113 ft | 23 kts | 288° |
| 2026-04-23 05:56 | 33.93615 | -118.40537 | 112 ft | 24 kts | 265° |
| 2026-04-23 05:57 | 33.93596 | -118.40708 | 111 ft | 19 kts | 265° |
| 2026-04-23 05:57 | 33.93584 | -118.40858 | 111 ft | 19 kts | 262° |
| 2026-04-23 05:57 | 33.93566 | -118.41021 | 112 ft | 20 kts | 262° |
| 2026-04-23 05:57 | 33.93554 | -118.41164 | 112 ft | 17 kts | 278° |
| 2026-04-23 05:58 | 33.93627 | -118.41265 | 115 ft | 19 kts | 346° |
| 2026-04-23 05:58 | 33.93742 | -118.41249 | 109 ft | 15 kts | 39° |
| 2026-04-23 05:58 | 33.93809 | -118.41158 | 104 ft | 16 kts | 6° |
| 2026-04-23 05:58 | 33.93923 | -118.41172 | 103 ft | 17 kts | 353° |
| 2026-04-23 05:59 | 33.94027 | -118.41195 | 101 ft | 13 kts | 319° |
| 2026-04-23 05:59 | 33.94085 | -118.41282 | 102 ft | 8 kts | 334° |
| 2026-04-23 05:59 | 33.94137 | -118.41301 | 102 ft | 5 kts | 347° |
| 2026-04-23 05:59 | 33.94126 | -118.41336 | 101 ft | 7 kts | 208° |
| 2026-04-23 06:00 | 33.94115 | -118.41393 | 102 ft | 5 kts | 293° |
| 2026-04-23 06:00 | 33.94119 | -118.41406 | 101 ft | 1 kts | 291° |